Recent forum postings ...
Today
Change wake turbulence after filing FP
Yesterday
KLM-VA site "not responding", is my flight toast?
3 days ago
Fly KLM Mon CTL
2021-04-09
SCHEDULE FLIGHT BOEING 737
2021-04-08
Law and rules in KLM VA
2021-04-04
Flying a Tour.


 
Aircraft IdentFlightrulesType of Flight
KLM948IS
NumberType of AircraftWake turbulenceEquipmentTransponder Type
1B734MSCFGIWS
Departure AerodromeDeparture Time
EGSS1130
Cruising speedFlight level
M083F310
Route
DET1R DET L6 DVR UL9 KONAN UL607 KOK KOK6D



Destination AerodromeTotal EETAlternative Aerodrome
EBLG0115EBBR
Other information
KLMVA/DOF/210408 /SIMBRIEF ROUTES/NAVIGRAPH CHARTS/AIRAC CYCLE 2103/WORLDTOUR

Explanation of the IVAO flightplan

Stansted (EGSS), United Kingdom

METAR
EGSS 081050Z 22016KT 9999 BKN022 09/01 Q1021

WINDSW at 18 mph
VISIBILITY16 miles
CONDITIONS
CLOUDSmostly cloudy
TEMP48°F (9°C)
WIND CHILL41°F (5°C)
DEWPT34°F (1°C)
HUMIDITY58%
BAROMETER1021 hPa (30.15 in Hg)

Liege (EBLG), Belgium

METAR
EBLG 081150Z 25010KT 9999 FEW045 06/M05 Q1024 NOSIG

WINDWSW at 12 mph
VISIBILITY16 miles
CONDITIONS
CLOUDSpartly cloudy
TEMP43°F (6°C)
WIND CHILL37°F (3°C)
DEWPT23°F (-5°C)
HUMIDITY46%
BAROMETER1024 hPa (30.24 in Hg)

RUNWAYS

RunwayDesignatorSurfaceHeadingLengthWidthAltitudeILSILS-Freq.Glidescope Pitch
05RIGHTASPHALT45.213283.61 ft45.11 ft200.86 ftILS/DME 05R109.353
Registration TimeGroundspeedAltitudeTransponderHeadingLongitudeLatitudeOn ground
11:18 08-04-20210 kts361 ft20002210.24446451.8837Yes
11:210 kts361 ft45062210.24446451.8837Yes
11:2419 kts361 ft4506320.24402551.8857Yes
11:27102 kts361 ft45062200.24470551.8919Yes
11:30264 kts3369 ft45061650.22236651.813No
11:33372 kts11169 ft45061560.38265651.5867No
11:36468 kts18952 ft45061110.68251251.2893No
11:39522 kts25658 ft45061031.3145451.1711No
11:42514 kts31303 ft4506901.995851.131No
11:45514 kts31291 ft4506952.6719351.0919No
11:48470 kts28108 ft4506983.310250.9935No
11:51429 kts22562 ft4506993.8845950.9055No
11:54392 kts17233 ft45061014.4067650.8258No
11:57308 kts14050 ft45061024.8509550.7554No
12:00286 kts10360 ft45061045.1883950.7011No
12:03267 kts6352 ft4506735.5386350.6655No
12:06216 kts2525 ft45062775.6927550.7679No
12:09146 kts1321 ft45062255.4969450.6707No
12:1214 kts672 ft4506455.4433750.6346Yes
12:150 kts672 ft45061345.4467750.6354Yes
12:180 kts672 ft12001345.4467750.6354Yes
12:210 kts672 ft12001345.4467750.6354Yes